sensor_id;sensor_type;location;lat;lon;timestamp;pressure;altitude;pressure_sealevel;temperature;humidity
20983;BME280;10650;51.528;6.748;2022-09-09T00:00:49;100630.41;;;17.81;77.84
20983;BME280;10650;51.528;6.748;2022-09-09T00:03:24;100632.41;;;17.76;77.76
20983;BME280;10650;51.528;6.748;2022-09-09T00:05:59;100621.59;;;17.76;77.59
20983;BME280;10650;51.528;6.748;2022-09-09T00:08:42;100618.91;;;17.76;77.39
20983;BME280;10650;51.528;6.748;2022-09-09T00:11:20;100622.56;;;17.75;77.55
20983;BME280;10650;51.528;6.748;2022-09-09T00:13:58;100618.91;;;17.76;77.78
20983;BME280;10650;51.528;6.748;2022-09-09T00:16:32;100619.78;;;17.77;78.46
20983;BME280;10650;51.528;6.748;2022-09-09T00:19:07;100623.50;;;17.74;78.36
20983;BME280;10650;51.528;6.748;2022-09-09T00:21:53;100623.56;;;17.73;78.73
20983;BME280;10650;51.528;6.748;2022-09-09T00:24:28;100620.09;;;17.69;78.76
20983;BME280;10650;51.528;6.748;2022-09-09T00:27:01;100617.59;;;17.64;78.92
20983;BME280;10650;51.528;6.748;2022-09-09T00:29:32;100622.28;;;17.59;79.37
20983;BME280;10650;51.528;6.748;2022-09-09T00:32:12;100627.00;;;17.54;79.39
20983;BME280;10650;51.528;6.748;2022-09-09T00:34:46;100619.88;;;17.52;79.74
20983;BME280;10650;51.528;6.748;2022-09-09T00:37:14;100622.72;;;17.49;79.48
20983;BME280;10650;51.528;6.748;2022-09-09T00:39:46;100621.94;;;17.45;79.48
20983;BME280;10650;51.528;6.748;2022-09-09T00:42:16;100627.41;;;17.43;79.78
20983;BME280;10650;51.528;6.748;2022-09-09T00:45:17;100622.31;;;17.36;79.75
20983;BME280;10650;51.528;6.748;2022-09-09T00:47:50;100616.00;;;17.37;80.05
20983;BME280;10650;51.528;6.748;2022-09-09T00:50:36;100615.09;;;17.36;80.08
20983;BME280;10650;51.528;6.748;2022-09-09T00:53:18;100620.50;;;17.36;80.20
20983;BME280;10650;51.528;6.748;2022-09-09T00:55:56;100613.34;;;17.35;80.41
20983;BME280;10650;51.528;6.748;2022-09-09T00:58:27;100619.63;;;17.36;80.64
20983;BME280;10650;51.528;6.748;2022-09-09T01:00:58;100623.13;;;17.38;80.58
20983;BME280;10650;51.528;6.748;2022-09-09T01:03:37;100622.19;;;17.39;80.65
20983;BME280;10650;51.528;6.748;2022-09-09T01:06:14;100623.25;;;17.35;80.32
20983;BME280;10650;51.528;6.748;2022-09-09T01:09:00;100620.75;;;17.30;80.36
20983;BME280;10650;51.528;6.748;2022-09-09T01:11:38;100628.03;;;17.28;80.62
20983;BME280;10650;51.528;6.748;2022-09-09T01:14:16;100619.97;;;17.26;80.59
20983;BME280;10650;51.528;6.748;2022-09-09T01:16:47;100617.31;;;17.25;80.85
20983;BME280;10650;51.528;6.748;2022-09-09T01:19:20;100612.94;;;17.22;80.74
20983;BME280;10650;51.528;6.748;2022-09-09T01:22:00;100609.41;;;17.20;80.80
20983;BME280;10650;51.528;6.748;2022-09-09T01:24:36;100606.84;;;17.17;81.17
20983;BME280;10650;51.528;6.748;2022-09-09T01:27:08;100610.47;;;17.16;81.22
20983;BME280;10650;51.528;6.748;2022-09-09T01:29:37;100604.25;;;17.14;81.45
20983;BME280;10650;51.528;6.748;2022-09-09T01:35:08;100604.38;;;17.11;81.68
20983;BME280;10650;51.528;6.748;2022-09-09T01:37:38;100596.28;;;17.11;81.70
20983;BME280;10650;51.528;6.748;2022-09-09T01:40:07;100594.56;;;17.08;81.78
20983;BME280;10650;51.528;6.748;2022-09-09T01:42:36;100601.84;;;17.06;81.94
20983;BME280;10650;51.528;6.748;2022-09-09T01:45:05;100603.59;;;17.07;81.82
20983;BME280;10650;51.528;6.748;2022-09-09T01:47:33;100596.56;;;17.03;82.03
20983;BME280;10650;51.528;6.748;2022-09-09T01:50:02;100603.84;;;17.01;81.98
20983;BME280;10650;51.528;6.748;2022-09-09T01:52:30;100603.00;;;16.99;82.39
20983;BME280;10650;51.528;6.748;2022-09-09T01:54:59;100604.91;;;16.97;82.44
20983;BME280;10650;51.528;6.748;2022-09-09T01:57:30;100598.56;;;16.98;82.51
20983;BME280;10650;51.528;6.748;2022-09-09T02:00:05;100595.88;;;16.98;82.89
20983;BME280;10650;51.528;6.748;2022-09-09T02:02:36;100605.72;;;16.99;82.86
20983;BME280;10650;51.528;6.748;2022-09-09T02:05:21;100594.81;;;17.02;82.94
20983;BME280;10650;51.528;6.748;2022-09-09T02:07:55;100599.13;;;17.06;83.01
20983;BME280;10650;51.528;6.748;2022-09-09T02:10:31;100593.53;;;17.12;83.05
20983;BME280;10650;51.528;6.748;2022-09-09T02:13:03;100600.69;;;17.14;83.06
20983;BME280;10650;51.528;6.748;2022-09-09T02:15:38;100603.34;;;17.15;82.79
20983;BME280;10650;51.528;6.748;2022-09-09T02:18:12;100600.63;;;17.15;82.74
20983;BME280;10650;51.528;6.748;2022-09-09T02:20:42;100601.69;;;17.11;82.76
20983;BME280;10650;51.528;6.748;2022-09-09T02:23:12;100605.44;;;17.07;82.76
20983;BME280;10650;51.528;6.748;2022-09-09T02:25:41;100610.84;;;17.07;82.78
20983;BME280;10650;51.528;6.748;2022-09-09T02:28:12;100601.84;;;17.06;82.67
20983;BME280;10650;51.528;6.748;2022-09-09T02:30:42;100607.09;;;17.11;83.08
20983;BME280;10650;51.528;6.748;2022-09-09T02:33:14;100601.56;;;17.14;83.03
20983;BME280;10650;51.528;6.748;2022-09-09T02:35:43;100598.88;;;17.14;82.95
20983;BME280;10650;51.528;6.748;2022-09-09T02:38:13;100603.28;;;17.17;82.46
20983;BME280;10650;51.528;6.748;2022-09-09T02:40:42;100600.56;;;17.17;82.38
20983;BME280;10650;51.528;6.748;2022-09-09T02:43:10;100599.50;;;17.21;82.22
20983;BME280;10650;51.528;6.748;2022-09-09T02:45:44;100602.97;;;17.24;82.01
20983;BME280;10650;51.528;6.748;2022-09-09T02:48:20;100603.75;;;17.26;81.84
20983;BME280;10650;51.528;6.748;2022-09-09T02:50:56;100598.38;;;17.26;81.66
20983;BME280;10650;51.528;6.748;2022-09-09T02:53:32;100600.25;;;17.24;81.21
20983;BME280;10650;51.528;6.748;2022-09-09T02:56:05;100607.44;;;17.25;80.89
20983;BME280;10650;51.528;6.748;2022-09-09T02:58:36;100600.19;;;17.26;80.98
20983;BME280;10650;51.528;6.748;2022-09-09T03:01:07;100595.84;;;17.22;80.87
20983;BME280;10650;51.528;6.748;2022-09-09T03:03:35;100593.28;;;17.19;81.15
20983;BME280;10650;51.528;6.748;2022-09-09T03:06:03;100601.44;;;17.17;81.07
20983;BME280;10650;51.528;6.748;2022-09-09T03:08:32;100598.81;;;17.16;81.47
20983;BME280;10650;51.528;6.748;2022-09-09T03:10:59;100589.91;;;17.14;81.43
20983;BME280;10650;51.528;6.748;2022-09-09T03:13:28;100598.09;;;17.10;81.73
20983;BME280;10650;51.528;6.748;2022-09-09T03:15:56;100590.06;;;17.09;81.68
20983;BME280;10650;51.528;6.748;2022-09-09T03:18:25;100591.88;;;17.08;81.86
20983;BME280;10650;51.528;6.748;2022-09-09T03:20:54;100591.00;;;17.08;81.62
20983;BME280;10650;51.528;6.748;2022-09-09T03:23:22;100596.44;;;17.06;81.99
20983;BME280;10650;51.528;6.748;2022-09-09T03:25:50;100583.91;;;17.05;81.92
20983;BME280;10650;51.528;6.748;2022-09-09T03:28:18;100589.25;;;17.07;82.38
20983;BME280;10650;51.528;6.748;2022-09-09T03:30:47;100594.56;;;17.08;82.18
20983;BME280;10650;51.528;6.748;2022-09-09T03:33:15;100582.66;;;17.14;81.92
20983;BME280;10650;51.528;6.748;2022-09-09T03:35:46;100590.69;;;17.16;82.01
20983;BME280;10650;51.528;6.748;2022-09-09T03:38:14;100582.53;;;17.17;81.96
20983;BME280;10650;51.528;6.748;2022-09-09T03:40:48;100582.47;;;17.19;81.67
20983;BME280;10650;51.528;6.748;2022-09-09T03:43:16;100584.19;;;17.21;81.79
20983;BME280;10650;51.528;6.748;2022-09-09T03:45:45;100577.94;;;17.21;81.80
20983;BME280;10650;51.528;6.748;2022-09-09T03:48:13;100581.44;;;17.23;81.52
20983;BME280;10650;51.528;6.748;2022-09-09T03:50:45;100580.63;;;17.21;81.95
20983;BME280;10650;51.528;6.748;2022-09-09T03:53:14;100584.31;;;17.18;81.74
20983;BME280;10650;51.528;6.748;2022-09-09T03:55:43;100588.81;;;17.18;81.86
20983;BME280;10650;51.528;6.748;2022-09-09T03:58:12;100585.25;;;17.17;81.96
20983;BME280;10650;51.528;6.748;2022-09-09T04:00:40;100586.13;;;17.18;81.98
20983;BME280;10650;51.528;6.748;2022-09-09T04:03:11;100585.19;;;17.19;81.88
20983;BME280;10650;51.528;6.748;2022-09-09T04:05:39;100582.47;;;17.19;81.70
20983;BME280;10650;51.528;6.748;2022-09-09T04:08:10;100589.72;;;17.18;81.71
20983;BME280;10650;51.528;6.748;2022-09-09T04:10:37;100577.94;;;17.21;81.58
20983;BME280;10650;51.528;6.748;2022-09-09T04:13:05;100590.31;;;17.25;81.56
20983;BME280;10650;51.528;6.748;2022-09-09T04:15:33;100574.03;;;17.28;81.33
20983;BME280;10650;51.528;6.748;2022-09-09T04:18:01;100573.97;;;17.29;81.30
20983;BME280;10650;51.528;6.748;2022-09-09T04:20:29;100583.75;;;17.32;81.10
20983;BME280;10650;51.528;6.748;2022-09-09T04:22:57;100588.03;;;17.38;80.75
20983;BME280;10650;51.528;6.748;2022-09-09T04:25:26;100595.06;;;17.42;80.71
20983;BME280;10650;51.528;6.748;2022-09-09T04:27:53;100585.97;;;17.44;80.99
20983;BME280;10650;51.528;6.748;2022-09-09T04:30:21;100578.81;;;17.43;81.10
20983;BME280;10650;51.528;6.748;2022-09-09T04:32:49;100588.75;;;17.43;80.98
20983;BME280;10650;51.528;6.748;2022-09-09T04:35:16;100587.81;;;17.44;80.90
20983;BME280;10650;51.528;6.748;2022-09-09T04:37:46;100585.72;;;17.51;80.82
20983;BME280;10650;51.528;6.748;2022-09-09T04:40:14;100580.09;;;17.57;80.25
20983;BME280;10650;51.528;6.748;2022-09-09T04:42:43;100588.75;;;17.65;80.09
20983;BME280;10650;51.528;6.748;2022-09-09T04:45:11;100587.75;;;17.68;79.98
20983;BME280;10650;51.528;6.748;2022-09-09T04:47:39;100586.59;;;17.73;79.76
20983;BME280;10650;51.528;6.748;2022-09-09T04:50:08;100585.66;;;17.74;79.62
20983;BME280;10650;51.528;6.748;2022-09-09T04:52:36;100591.94;;;17.75;79.88
20983;BME280;10650;51.528;6.748;2022-09-09T04:55:04;100596.47;;;17.74;79.83
20983;BME280;10650;51.528;6.748;2022-09-09T04:57:32;100587.53;;;17.72;79.62
20983;BME280;10650;51.528;6.748;2022-09-09T05:00:03;100591.88;;;17.76;79.55
20983;BME280;10650;51.528;6.748;2022-09-09T05:02:31;100594.47;;;17.79;79.49
20983;BME280;10650;51.528;6.748;2022-09-09T05:04:58;100593.38;;;17.84;79.26
20983;BME280;10650;51.528;6.748;2022-09-09T05:07:27;100594.22;;;17.86;79.14
20983;BME280;10650;51.528;6.748;2022-09-09T05:09:55;100587.97;;;17.84;79.02
20983;BME280;10650;51.528;6.748;2022-09-09T05:12:23;100587.97;;;17.84;78.84
20983;BME280;10650;51.528;6.748;2022-09-09T05:14:51;100585.28;;;17.84;78.82
20983;BME280;10650;51.528;6.748;2022-09-09T05:17:21;100587.91;;;17.85;78.83
20983;BME280;10650;51.528;6.748;2022-09-09T05:19:48;100584.22;;;17.88;78.79
20983;BME280;10650;51.528;6.748;2022-09-09T05:22:18;100585.19;;;17.87;78.68
20983;BME280;10650;51.528;6.748;2022-09-09T05:24:49;100583.25;;;17.90;78.60
20983;BME280;10650;51.528;6.748;2022-09-09T05:27:18;100576.78;;;17.94;78.17
20983;BME280;10650;51.528;6.748;2022-09-09T05:29:46;100572.06;;;18.00;77.79
20983;BME280;10650;51.528;6.748;2022-09-09T05:32:14;100571.78;;;18.06;77.29
20983;BME280;10650;51.528;6.748;2022-09-09T05:34:44;100570.88;;;18.05;77.33
20983;BME280;10650;51.528;6.748;2022-09-09T05:37:13;100566.53;;;18.03;77.18
20983;BME280;10650;51.528;6.748;2022-09-09T05:39:40;100571.09;;;18.01;77.14
20983;BME280;10650;51.528;6.748;2022-09-09T05:42:08;100570.28;;;17.98;77.49
20983;BME280;10650;51.528;6.748;2022-09-09T05:44:36;100572.09;;;17.98;77.14
20983;BME280;10650;51.528;6.748;2022-09-09T05:47:03;100578.41;;;17.98;77.11
20983;BME280;10650;51.528;6.748;2022-09-09T05:49:31;100570.22;;;18.00;77.16
20983;BME280;10650;51.528;6.748;2022-09-09T05:52:01;100578.34;;;18.00;77.01
20983;BME280;10650;51.528;6.748;2022-09-09T05:54:30;100578.41;;;17.98;76.99
20983;BME280;10650;51.528;6.748;2022-09-09T05:56:58;100571.16;;;17.99;77.09
20983;BME280;10650;51.528;6.748;2022-09-09T05:59:26;100578.34;;;18.00;76.91
20983;BME280;10650;51.528;6.748;2022-09-09T06:01:54;100574.69;;;18.01;77.26
20983;BME280;10650;51.528;6.748;2022-09-09T06:04:22;100580.03;;;18.03;76.85
20983;BME280;10650;51.528;6.748;2022-09-09T06:06:50;100584.38;;;18.07;76.86
20983;BME280;10650;51.528;6.748;2022-09-09T06:09:19;100579.84;;;18.07;76.75
20983;BME280;10650;51.528;6.748;2022-09-09T06:11:47;100575.22;;;18.09;76.67
20983;BME280;10650;51.528;6.748;2022-09-09T06:14:14;100581.53;;;18.10;76.56
20983;BME280;10650;51.528;6.748;2022-09-09T06:16:44;100581.31;;;18.14;76.62
20983;BME280;10650;51.528;6.748;2022-09-09T06:19:12;100579.25;;;18.21;75.97
20983;BME280;10650;51.528;6.748;2022-09-09T06:21:40;100577.13;;;18.28;75.74
20983;BME280;10650;51.528;6.748;2022-09-09T06:24:08;100589.56;;;18.32;75.16
20983;BME280;10650;51.528;6.748;2022-09-09T06:26:39;100580.53;;;18.33;74.92
20983;BME280;10650;51.528;6.748;2022-09-09T06:29:08;100588.63;;;18.33;75.33
20983;BME280;10650;51.528;6.748;2022-09-09T06:31:36;100589.28;;;18.38;74.92
20983;BME280;10650;51.528;6.748;2022-09-09T06:34:05;100589.13;;;18.43;74.75
20983;BME280;10650;51.528;6.748;2022-09-09T06:36:35;100592.47;;;18.48;74.74
20983;BME280;10650;51.528;6.748;2022-09-09T06:39:03;100593.16;;;18.53;74.76
20983;BME280;10650;51.528;6.748;2022-09-09T06:41:32;100589.97;;;18.64;74.63
20983;BME280;10650;51.528;6.748;2022-09-09T06:44:02;100593.06;;;18.75;74.27
20983;BME280;10650;51.528;6.748;2022-09-09T06:46:30;100601.88;;;18.80;73.77
20983;BME280;10650;51.528;6.748;2022-09-09T06:49:02;100601.72;;;18.83;73.51
20983;BME280;10650;51.528;6.748;2022-09-09T06:51:31;100588.25;;;18.82;73.16
20983;BME280;10650;51.528;6.748;2022-09-09T06:54:00;100603.63;;;18.81;72.88
20983;BME280;10650;51.528;6.748;2022-09-09T06:56:29;100601.78;;;18.82;73.02
20983;BME280;10650;51.528;6.748;2022-09-09T06:59:02;100599.09;;;18.82;72.66
20983;BME280;10650;51.528;6.748;2022-09-09T07:01:32;100600.78;;;18.84;72.18
20983;BME280;10650;51.528;6.748;2022-09-09T07:04:02;100606.88;;;18.90;72.18
20983;BME280;10650;51.528;6.748;2022-09-09T07:06:34;100606.47;;;18.99;71.76
20983;BME280;10650;51.528;6.748;2022-09-09T07:09:03;100606.72;;;19.13;71.54
20983;BME280;10650;51.528;6.748;2022-09-09T07:11:32;100602.25;;;19.31;71.48
20983;BME280;10650;51.528;6.748;2022-09-09T07:14:02;100607.59;;;19.52;70.70
20983;BME280;10650;51.528;6.748;2022-09-09T07:16:29;100611.44;;;19.65;70.11
20983;BME280;10650;51.528;6.748;2022-09-09T07:18:59;100608.66;;;19.67;69.69
20983;BME280;10650;51.528;6.748;2022-09-09T07:21:30;100615.84;;;19.68;69.27
20983;BME280;10650;51.528;6.748;2022-09-09T07:23:58;100610.34;;;19.69;69.18
20983;BME280;10650;51.528;6.748;2022-09-09T07:26:28;100609.56;;;19.67;69.45
20983;BME280;10650;51.528;6.748;2022-09-09T07:28:56;100615.41;;;19.77;68.85
20983;BME280;10650;51.528;6.748;2022-09-09T07:31:28;100612.56;;;19.80;67.75
20983;BME280;10650;51.528;6.748;2022-09-09T07:33:57;100623.53;;;19.77;66.94
20983;BME280;10650;51.528;6.748;2022-09-09T07:36:28;100624.38;;;19.79;67.39
20983;BME280;10650;51.528;6.748;2022-09-09T07:39:00;100619.44;;;19.87;67.34
20983;BME280;10650;51.528;6.748;2022-09-09T07:41:31;100617.53;;;19.90;66.94
20983;BME280;10650;51.528;6.748;2022-09-09T07:44:04;100611.16;;;19.91;67.23
20983;BME280;10650;51.528;6.748;2022-09-09T07:46:34;100617.88;;;20.01;66.72
20983;BME280;10650;51.528;6.748;2022-09-09T07:49:03;100612.88;;;20.11;66.30
20983;BME280;10650;51.528;6.748;2022-09-09T07:51:32;100614.22;;;20.19;66.06
20983;BME280;10650;51.528;6.748;2022-09-09T07:54:02;100622.19;;;20.22;65.68
20983;BME280;10650;51.528;6.748;2022-09-09T07:56:31;100622.13;;;20.24;66.04
20983;BME280;10650;51.528;6.748;2022-09-09T07:58:59;100613.72;;;20.29;65.51
20983;BME280;10650;51.528;6.748;2022-09-09T08:01:29;100627.16;;;20.32;65.19
20983;BME280;10650;51.528;6.748;2022-09-09T08:04:00;100622.28;;;20.38;64.03
20983;BME280;10650;51.528;6.748;2022-09-09T08:06:31;100618.53;;;20.41;63.61
20983;BME280;10650;51.528;6.748;2022-09-09T08:09:00;100635.38;;;20.48;62.69
20983;BME280;10650;51.528;6.748;2022-09-09T08:11:28;100633.94;;;20.40;61.86
20983;BME280;10650;51.528;6.748;2022-09-09T08:14:03;100634.97;;;20.38;61.71
20983;BME280;10650;51.528;6.748;2022-09-09T08:16:33;100633.88;;;20.42;61.68
20983;BME280;10650;51.528;6.748;2022-09-09T08:19:04;100630.19;;;20.43;60.99
20983;BME280;10650;51.528;6.748;2022-09-09T08:21:35;100628.75;;;20.36;61.48
20983;BME280;10650;51.528;6.748;2022-09-09T08:24:04;100632.03;;;20.43;61.68
20983;BME280;10650;51.528;6.748;2022-09-09T08:26:34;100637.13;;;20.49;60.75
20983;BME280;10650;51.528;6.748;2022-09-09T08:29:03;100632.03;;;20.43;60.67
20983;BME280;10650;51.528;6.748;2022-09-09T08:31:33;100635.84;;;20.38;60.73
20983;BME280;10650;51.528;6.748;2022-09-09T08:34:01;100631.53;;;20.34;60.72
20983;BME280;10650;51.528;6.748;2022-09-09T08:36:32;100636.34;;;20.29;61.16
20983;BME280;10650;51.528;6.748;2022-09-09T08:39:01;100632.59;;;20.32;60.79
20983;BME280;10650;51.528;6.748;2022-09-09T08:41:38;100630.50;;;20.37;61.53
20983;BME280;10650;51.528;6.748;2022-09-09T08:44:10;100631.63;;;20.50;61.24
20983;BME280;10650;51.528;6.748;2022-09-09T08:46:46;100630.81;;;20.66;60.31
20983;BME280;10650;51.528;6.748;2022-09-09T08:49:31;100634.69;;;20.79;60.30
20983;BME280;10650;51.528;6.748;2022-09-09T08:52:11;100624.38;;;21.02;59.58
20983;BME280;10650;51.528;6.748;2022-09-09T08:54:42;100628.38;;;21.12;58.85
20983;BME280;10650;51.528;6.748;2022-09-09T08:57:20;100618.13;;;21.17;58.57
20983;BME280;10650;51.528;6.748;2022-09-09T08:59:54;100627.19;;;21.34;58.48
20983;BME280;10650;51.528;6.748;2022-09-09T09:02:26;100618.50;;;21.43;57.99
20983;BME280;10650;51.528;6.748;2022-09-09T09:05:05;100626.66;;;21.43;57.78
20983;BME280;10650;51.528;6.748;2022-09-09T09:07:47;100620.53;;;21.39;57.86
20983;BME280;10650;51.528;6.748;2022-09-09T09:10:33;100626.06;;;21.38;57.85
20983;BME280;10650;51.528;6.748;2022-09-09T09:13:12;100627.88;;;21.37;57.40
20983;BME280;10650;51.528;6.748;2022-09-09T09:15:44;100637.97;;;21.35;57.50
20983;BME280;10650;51.528;6.748;2022-09-09T09:18:20;100635.75;;;21.26;57.66
20983;BME280;10650;51.528;6.748;2022-09-09T09:20:53;100644.88;;;21.25;57.74
20983;BME280;10650;51.528;6.748;2022-09-09T09:23:25;100646.69;;;21.24;58.22
20983;BME280;10650;51.528;6.748;2022-09-09T09:25:56;100639.59;;;21.22;57.70
20983;BME280;10650;51.528;6.748;2022-09-09T09:28:29;100646.78;;;21.23;57.77
20983;BME280;10650;51.528;6.748;2022-09-09T09:30:59;100643.66;;;21.31;58.33
20983;BME280;10650;51.528;6.748;2022-09-09T09:33:33;100650.75;;;21.33;56.98
20983;BME280;10650;51.528;6.748;2022-09-09T09:36:03;100646.28;;;21.32;56.76
20983;BME280;10650;51.528;6.748;2022-09-09T09:38:35;100649.50;;;21.23;57.20
20983;BME280;10650;51.528;6.748;2022-09-09T09:41:31;100650.13;;;21.12;57.54
20983;BME280;10650;51.528;6.748;2022-09-09T09:43:59;100650.50;;;21.04;57.58
20983;BME280;10650;51.528;6.748;2022-09-09T09:46:28;100656.69;;;20.90;57.81
20983;BME280;10650;51.528;6.748;2022-09-09T09:48:57;100659.72;;;20.84;58.02
20983;BME280;10650;51.528;6.748;2022-09-09T09:51:26;100658.69;;;20.87;57.99
20983;BME280;10650;51.528;6.748;2022-09-09T09:54:09;100659.03;;;20.81;57.92
20983;BME280;10650;51.528;6.748;2022-09-09T09:56:41;100653.59;;;20.81;57.84
20983;BME280;10650;51.528;6.748;2022-09-09T09:59:23;100651.56;;;20.84;57.63
20983;BME280;10650;51.528;6.748;2022-09-09T10:02:15;100639.69;;;20.87;57.67
20983;BME280;10650;51.528;6.748;2022-09-09T10:04:43;100645.06;;;21.04;57.24
20983;BME280;10650;51.528;6.748;2022-09-09T10:07:12;100641.19;;;21.26;56.42
20983;BME280;10650;51.528;6.748;2022-09-09T10:09:41;100637.34;;;21.46;55.84
20983;BME280;10650;51.528;6.748;2022-09-09T10:12:17;100634.53;;;21.65;55.79
20983;BME280;10650;51.528;6.748;2022-09-09T10:14:54;100629.06;;;21.81;55.25
20983;BME280;10650;51.528;6.748;2022-09-09T10:17:32;100631.88;;;21.95;55.00
20983;BME280;10650;51.528;6.748;2022-09-09T10:20:18;100628.06;;;22.14;54.39
20983;BME280;10650;51.528;6.748;2022-09-09T10:22:51;100631.38;;;22.19;54.04
20983;BME280;10650;51.528;6.748;2022-09-09T10:25:38;100632.59;;;22.29;53.55
20983;BME280;10650;51.528;6.748;2022-09-09T10:28:33;100632.59;;;22.29;53.47
20983;BME280;10650;51.528;6.748;2022-09-09T10:31:16;100625.41;;;22.28;53.50
20983;BME280;10650;51.528;6.748;2022-09-09T10:33:50;100630.31;;;22.22;53.55
20983;BME280;10650;51.528;6.748;2022-09-09T10:36:20;100624.72;;;22.09;53.55
20983;BME280;10650;51.528;6.748;2022-09-09T10:38:53;100620.47;;;21.89;53.88
20983;BME280;10650;51.528;6.748;2022-09-09T10:41:36;100631.25;;;21.74;54.50
20983;BME280;10650;51.528;6.748;2022-09-09T10:44:17;100620.50;;;21.57;54.20
20983;BME280;10650;51.528;6.748;2022-09-09T10:46:57;100619.84;;;21.52;53.89
20983;BME280;10650;51.528;6.748;2022-09-09T10:49:47;100619.81;;;21.36;54.23
20983;BME280;10650;51.528;6.748;2022-09-09T10:52:20;100628.06;;;21.34;54.40
20983;BME280;10650;51.528;6.748;2022-09-09T10:54:55;100630.41;;;21.24;54.59
20983;BME280;10650;51.528;6.748;2022-09-09T10:57:29;100618.22;;;21.16;54.97
20983;BME280;10650;51.528;6.748;2022-09-09T11:00:02;100626.53;;;21.13;55.49
20983;BME280;10650;51.528;6.748;2022-09-09T11:02:33;100613.81;;;21.13;55.34
20983;BME280;10650;51.528;6.748;2022-09-09T11:05:05;100614.28;;;21.21;55.11
20983;BME280;10650;51.528;6.748;2022-09-09T11:07:37;100616.41;;;21.32;55.38
20983;BME280;10650;51.528;6.748;2022-09-09T11:10:18;100610.09;;;21.48;55.07
20983;BME280;10650;51.528;6.748;2022-09-09T11:12:53;100613.72;;;21.64;54.76
20983;BME280;10650;51.528;6.748;2022-09-09T11:15:28;100618.56;;;21.75;54.19
20983;BME280;10650;51.528;6.748;2022-09-09T11:18:00;100607.91;;;21.86;54.13
20983;BME280;10650;51.528;6.748;2022-09-09T11:20:29;100613.19;;;21.89;53.73
20983;BME280;10650;51.528;6.748;2022-09-09T11:23:01;100610.63;;;21.86;53.27
20983;BME280;10650;51.528;6.748;2022-09-09T11:25:32;100607.69;;;21.75;53.90
20983;BME280;10650;51.528;6.748;2022-09-09T11:28:17;100611.97;;;21.63;54.14
20983;BME280;10650;51.528;6.748;2022-09-09T11:31:03;100606.03;;;21.56;54.10
20983;BME280;10650;51.528;6.748;2022-09-09T11:33:50;100612.69;;;21.67;53.95
20983;BME280;10650;51.528;6.748;2022-09-09T11:39:37;100607.59;;;21.76;53.83
20983;BME280;10650;51.528;6.748;2022-09-09T11:42:16;100606.78;;;21.90;53.84
20983;BME280;10650;51.528;6.748;2022-09-09T11:44:46;100612.47;;;22.02;53.52
20983;BME280;10650;51.528;6.748;2022-09-09T11:47:23;100603.59;;;22.14;53.89
20983;BME280;10650;51.528;6.748;2022-09-09T11:50:07;100600.06;;;22.12;53.31
20983;BME280;10650;51.528;6.748;2022-09-09T11:52:37;100595.19;;;22.03;52.53
20983;BME280;10650;51.528;6.748;2022-09-09T11:55:09;100590.03;;;21.98;52.50
20983;BME280;10650;51.528;6.748;2022-09-09T11:57:38;100600.38;;;21.91;52.95
20983;BME280;10650;51.528;6.748;2022-09-09T12:00:30;100609.88;;;21.84;53.34
20983;BME280;10650;51.528;6.748;2022-09-09T12:03:00;100605.47;;;21.82;53.25
20983;BME280;10650;51.528;6.748;2022-09-09T12:05:36;100600.13;;;21.80;53.43
20983;BME280;10650;51.528;6.748;2022-09-09T12:08:05;100597.41;;;21.80;53.48
20983;BME280;10650;51.528;6.748;2022-09-09T12:10:36;100606.63;;;21.77;53.62
20983;BME280;10650;51.528;6.748;2022-09-09T12:13:16;100609.34;;;21.77;53.57
20983;BME280;10650;51.528;6.748;2022-09-09T12:15:49;100596.38;;;21.83;53.38
20983;BME280;10650;51.528;6.748;2022-09-09T12:18:23;100599.50;;;21.91;53.52
20983;BME280;10650;51.528;6.748;2022-09-09T12:20:55;100600.91;;;21.98;53.65
20983;BME280;10650;51.528;6.748;2022-09-09T12:23:32;100605.34;;;21.99;53.41
20983;BME280;10650;51.528;6.748;2022-09-09T12:26:17;100604.31;;;22.02;53.64
20983;BME280;10650;51.528;6.748;2022-09-09T12:28:56;100608.50;;;22.07;53.85
20983;BME280;10650;51.528;6.748;2022-09-09T12:31:32;100616.38;;;22.12;53.71
20983;BME280;10650;51.528;6.748;2022-09-09T12:34:09;100606.50;;;22.11;53.32
20983;BME280;10650;51.528;6.748;2022-09-09T12:36:38;100613.00;;;22.08;53.65
20983;BME280;10650;51.528;6.748;2022-09-09T12:39:16;100631.22;;;22.06;54.30
20983;BME280;10650;51.528;6.748;2022-09-09T12:41:51;100632.72;;;21.96;55.50
20983;BME280;10650;51.528;6.748;2022-09-09T12:44:24;100631.78;;;21.97;55.66
20983;BME280;10650;51.528;6.748;2022-09-09T12:46:54;100641.66;;;22.14;55.88
20983;BME280;10650;51.528;6.748;2022-09-09T12:49:29;100637.53;;;22.23;55.30
20983;BME280;10650;51.528;6.748;2022-09-09T12:52:02;100629.19;;;22.26;55.18
20983;BME280;10650;51.528;6.748;2022-09-09T12:54:33;100635.75;;;22.22;56.16
20983;BME280;10650;51.528;6.748;2022-09-09T12:57:01;100630.50;;;22.19;57.22
20983;BME280;10650;51.528;6.748;2022-09-09T12:59:36;100631.56;;;22.16;59.37
20983;BME280;10650;51.528;6.748;2022-09-09T13:02:17;100624.44;;;22.13;59.69
20983;BME280;10650;51.528;6.748;2022-09-09T13:04:46;100633.78;;;22.09;59.12
20983;BME280;10650;51.528;6.748;2022-09-09T13:07:14;100630.81;;;21.98;59.20
20983;BME280;10650;51.528;6.748;2022-09-09T13:09:43;100624.09;;;21.89;59.36
20983;BME280;10650;51.528;6.748;2022-09-09T13:12:15;100631.16;;;21.76;60.33
20983;BME280;10650;51.528;6.748;2022-09-09T13:14:45;100628.38;;;21.62;60.61
20983;BME280;10650;51.528;6.748;2022-09-09T13:17:21;100624.78;;;21.61;61.77
20983;BME280;10650;51.528;6.748;2022-09-09T13:19:50;100615.22;;;21.70;61.45
20983;BME280;10650;51.528;6.748;2022-09-09T13:22:29;100619.97;;;21.82;61.38